Time;durP1;ratioP1;P1;durP2;ratioP2;P2;SDS_P1;SDS_P2;PMS_P1;PMS_P2;Temp;Humidity;BMP_temperature;BMP_pressure;BME280_temperature;BME280_humidity;BME280_pressure;Samples;Min_cycle;Max_cycle;Signal;HPM_P1;HPM_P2
2022/09/18 00:02:22;;;;;;;;;;;;;;;13.45;100.00;99197.31;10542642;28;20340;-74
2022/09/18 00:07:25;;;;;;;;;;;;;;;13.54;100.00;99209.97;10574079;28;19927;-74
2022/09/18 00:12:28;;;;;;;;;;;;;;;13.46;100.00;99203.38;10585445;28;19927;-73
2022/09/18 00:17:33;;;;;;;;;;;;;;;13.40;100.00;99208.81;10584561;28;19934;-73
2022/09/18 00:22:36;;;;;;;;;;;;;;;13.41;100.00;99213.13;10584235;28;20372;-73
2022/09/18 00:27:39;;;;;;;;;;;;;;;13.37;100.00;99220.25;10584531;28;19934;-75
2022/09/18 00:32:43;;;;;;;;;;;;;;;13.39;100.00;99218.38;10584224;28;19934;-75
2022/09/18 00:37:46;;;;;;;;;;;;;;;13.40;100.00;99214.91;10584168;28;19931;-76
2022/09/18 00:42:49;;;;;;;;;;;;;;;13.42;100.00;99223.50;10203387;28;10000568;-77
2022/09/18 00:47:54;;;;;;;;;;;;;;;13.44;100.00;99216.44;10540819;28;20237;-79
2022/09/18 00:52:57;;;;;;;;;;;;;;;13.42;100.00;99218.28;10541106;28;19930;-77
2022/09/18 00:58:01;;;;;;;;;;;;;;;13.42;100.00;99215.69;10542601;28;19928;-76
2022/09/18 01:03:06;;;;;;;;;;;;;;;13.46;100.00;99212.03;10541675;28;20023;-76
2022/09/18 01:08:15;;;;;;;;;;;;;;;13.49;100.00;99214.53;10538825;28;20415;-76
2022/09/18 01:13:25;;;;;;;;;;;;;;;13.43;100.00;99212.16;10510925;28;19939;-77
2022/09/18 01:18:34;;;;;;;;;;;;;;;13.46;100.00;99206.81;10503651;28;19933;-76
2022/09/18 01:23:56;;;;;;;;;;;;;;;13.49;100.00;99205.84;10539399;28;20364;-78
2022/09/18 01:29:05;;;;;;;;;;;;;;;13.38;100.00;99201.06;10539290;28;19924;-76
2022/09/18 01:34:12;;;;;;;;;;;;;;;13.43;100.00;99199.13;10538851;28;19928;-78
2022/09/18 01:39:17;;;;;;;;;;;;;;;13.37;100.00;99194.19;10525222;28;20110;-80
2022/09/18 01:44:25;;;;;;;;;;;;;;;13.32;100.00;99192.66;10579572;28;20030;-76
2022/09/18 01:49:32;;;;;;;;;;;;;;;13.26;100.00;99196.34;10586377;28;20343;-72
2022/09/18 01:54:37;;;;;;;;;;;;;;;13.24;100.00;99187.72;10586479;28;19924;-75
2022/09/18 01:59:43;;;;;;;;;;;;;;;13.18;100.00;99187.13;10587488;28;20006;-75
2022/09/18 02:04:50;;;;;;;;;;;;;;;13.21;100.00;99185.25;10586755;28;19924;-74
2022/09/18 02:09:53;;;;;;;;;;;;;;;13.24;100.00;99177.31;10196706;28;9999814;-70
2022/09/18 02:15:02;;;;;;;;;;;;;;;13.22;100.00;99171.31;10539278;28;19981;-74
2022/09/18 02:20:09;;;;;;;;;;;;;;;13.28;100.00;99173.69;10538665;28;19985;-68
2022/09/18 02:25:14;;;;;;;;;;;;;;;13.21;100.00;99174.84;10537725;28;19928;-68
2022/09/18 02:30:19;;;;;;;;;;;;;;;13.27;100.00;99173.75;10537840;28;19924;-76
2022/09/18 02:35:23;;;;;;;;;;;;;;;13.31;100.00;99183.97;10537623;28;19934;-73
2022/09/18 02:40:30;;;;;;;;;;;;;;;13.19;100.00;99175.78;10537451;28;19924;-72
2022/09/18 02:45:39;;;;;;;;;;;;;;;13.14;100.00;99160.34;10537579;28;19932;-74
2022/09/18 02:50:47;;;;;;;;;;;;;;;13.19;100.00;99167.97;10539153;28;19946;-75
2022/09/18 02:55:52;;;;;;;;;;;;;;;13.18;100.00;99166.28;10542090;28;19924;-74
2022/09/18 03:00:58;;;;;;;;;;;;;;;13.23;100.00;99154.78;10543194;28;19935;-80
2022/09/18 03:06:01;;;;;;;;;;;;;;;13.18;100.00;99146.31;10548085;28;19927;-76
2022/09/18 03:11:05;;;;;;;;;;;;;;;13.22;100.00;99142.66;10550518;28;20317;-75
2022/09/18 03:16:09;;;;;;;;;;;;;;;13.13;100.00;99153.44;10550402;28;19934;-70
2022/09/18 03:21:12;;;;;;;;;;;;;;;12.93;100.00;99149.88;10226544;28;10000147;-75
2022/09/18 03:26:15;;;;;;;;;;;;;;;13.04;100.00;99148.59;10586999;28;19928;-75
2022/09/18 03:31:20;;;;;;;;;;;;;;;12.97;100.00;99157.53;10588400;28;19935;-74
2022/09/18 03:36:23;;;;;;;;;;;;;;;13.04;100.00;99165.97;10587316;28;19924;-75
2022/09/18 03:41:26;;;;;;;;;;;;;;;12.98;100.00;99164.44;10583444;28;19943;-73
2022/09/18 03:46:30;;;;;;;;;;;;;;;13.02;100.00;99176.47;10543136;28;19924;-74
2022/09/18 03:51:34;;;;;;;;;;;;;;;13.08;100.00;99180.59;10542921;28;19924;-75
2022/09/18 03:56:37;;;;;;;;;;;;;;;13.14;100.00;99181.19;10542922;28;19966;-73
2022/09/18 04:01:42;;;;;;;;;;;;;;;13.15;100.00;99189.88;10543010;28;19924;-74
2022/09/18 04:06:45;;;;;;;;;;;;;;;13.21;100.00;99193.06;10542668;28;19927;-72
2022/09/18 04:11:50;;;;;;;;;;;;;;;13.21;100.00;99193.06;10542439;28;19950;-76
2022/09/18 04:16:55;;;;;;;;;;;;;;;13.16;100.00;99191.56;10540864;28;19934;-73
2022/09/18 04:21:58;;;;;;;;;;;;;;;13.21;100.00;99197.44;10541554;28;20313;-74
2022/09/18 04:27:00;;;;;;;;;;;;;;;13.28;100.00;99188.47;10542002;28;19946;-77
2022/09/18 04:32:05;;;;;;;;;;;;;;;13.36;100.00;99181.19;10541807;28;19928;-73
2022/09/18 04:37:08;;;;;;;;;;;;;;;13.28;100.00;99186.72;10541586;28;19975;-74
2022/09/18 04:42:13;;;;;;;;;;;;;;;13.28;100.00;99178.03;10541513;28;19928;-73
2022/09/18 04:47:17;;;;;;;;;;;;;;;13.27;100.00;99190.22;10540605;28;19931;-74
2022/09/18 04:52:20;;;;;;;;;;;;;;;13.24;100.00;99179.06;10541818;28;20011;-72
2022/09/18 04:57:23;;;;;;;;;;;;;;;13.27;100.00;99185.00;10542701;28;19975;-73
2022/09/18 05:02:27;;;;;;;;;;;;;;;13.32;100.00;99188.28;10541920;28;19930;-74
2022/09/18 05:07:30;;;;;;;;;;;;;;;13.27;100.00;99179.78;10540569;28;20026;-71
2022/09/18 05:12:33;;;;;;;;;;;;;;;13.18;100.00;99188.00;10522264;28;20018;-75
2022/09/18 05:17:39;;;;;;;;;;;;;;;13.01;100.00;99192.94;10541569;28;20341;-73
2022/09/18 05:22:44;;;;;;;;;;;;;;;12.87;100.00;99186.59;10581398;28;19928;-74
2022/09/18 05:27:58;;;;;;;;;;;;;;;12.90;100.00;99181.25;10572226;28;19939;-72
2022/09/18 05:33:03;;;;;;;;;;;;;;;12.90;100.00;99189.06;10538954;28;19940;-72
2022/09/18 05:38:06;;;;;;;;;;;;;;;12.96;100.00;99197.50;10539252;28;19963;-72
2022/09/18 05:43:09;;;;;;;;;;;;;;;13.03;100.00;99191.16;10534726;28;20520;-73
2022/09/18 05:48:14;;;;;;;;;;;;;;;12.96;100.00;99186.25;10496978;28;19978;-74
2022/09/18 05:53:18;;;;;;;;;;;;;;;13.05;100.00;99186.75;10496222;28;20364;-74
2022/09/18 05:58:21;;;;;;;;;;;;;;;13.05;100.00;99193.72;10496254;28;19925;-73
2022/09/18 06:03:25;;;;;;;;;;;;;;;12.99;100.00;99184.38;10496497;28;19936;-71
2022/09/18 06:08:28;;;;;;;;;;;;;;;12.93;100.00;99191.53;10496212;28;19928;-75
2022/09/18 06:13:31;;;;;;;;;;;;;;;12.88;100.00;99193.47;10496154;28;19935;-75
2022/09/18 06:18:36;;;;;;;;;;;;;;;12.86;100.00;99196.16;10499368;28;19935;-72
2022/09/18 06:23:39;;;;;;;;;;;;;;;12.93;100.00;99188.94;10501540;28;20252;-78
2022/09/18 06:28:42;;;;;;;;;;;;;;;12.80;100.00;99191.19;10166064;28;10000323;-75
2022/09/18 06:33:48;;;;;;;;;;;;;;;12.84;100.00;99200.56;10536985;28;20346;-76
2022/09/18 06:38:51;;;;;;;;;;;;;;;12.98;100.00;99210.47;10538146;28;19931;-76
2022/09/18 06:43:54;;;;;;;;;;;;;;;12.98;100.00;99194.84;10538614;28;19978;-76
2022/09/18 06:48:59;;;;;;;;;;;;;;;13.00;100.00;99201.69;10538084;28;19934;-78
2022/09/18 06:54:01;;;;;;;;;;;;;;;13.04;100.00;99208.53;10537077;28;19924;-76
2022/09/18 06:59:05;;;;;;;;;;;;;;;13.09;100.00;99213.53;10537492;28;19928;-77
2022/09/18 07:04:09;;;;;;;;;;;;;;;12.94;100.00;99214.97;10539373;28;19925;-76
2022/09/18 07:09:12;;;;;;;;;;;;;;;12.83;100.00;99219.72;10542420;28;20237;-75
2022/09/18 07:14:15;;;;;;;;;;;;;;;12.74;100.00;99217.44;10542166;28;19924;-80
2022/09/18 07:19:19;;;;;;;;;;;;;;;12.60;100.00;99212.75;10542512;28;20397;-79
2022/09/18 07:24:22;;;;;;;;;;;;;;;12.56;100.00;99218.97;10542378;28;19924;-79
2022/09/18 07:29:25;;;;;;;;;;;;;;;12.65;100.00;99222.97;10541911;28;19924;-75
2022/09/18 07:34:30;;;;;;;;;;;;;;;12.82;100.00;99218.84;10541903;28;19923;-77
2022/09/18 07:39:33;;;;;;;;;;;;;;;12.80;100.00;99223.25;10541767;28;19936;-75
2022/09/18 07:44:36;;;;;;;;;;;;;;;12.71;100.00;99220.16;10524241;28;19935;-79
2022/09/18 07:49:41;;;;;;;;;;;;;;;12.68;100.00;99230.69;10541092;28;19924;-77
2022/09/18 07:54:44;;;;;;;;;;;;;;;12.62;100.00;99239.56;10549371;28;19924;-74
2022/09/18 07:59:47;;;;;;;;;;;;;;;12.61;100.00;99235.25;10547158;28;20007;-78
2022/09/18 08:04:52;;;;;;;;;;;;;;;12.75;100.00;99229.56;10547805;28;20264;-77
2022/09/18 08:09:55;;;;;;;;;;;;;;;12.54;100.00;99240.75;10547443;28;20296;-78
2022/09/18 08:14:58;;;;;;;;;;;;;;;12.70;100.00;99241.91;10547181;28;20015;-79
2022/09/18 08:20:03;;;;;;;;;;;;;;;12.49;100.00;99242.69;10543794;28;19924;-76
2022/09/18 08:25:06;;;;;;;;;;;;;;;12.56;100.00;99239.78;10544233;28;19943;-77
2022/09/18 08:30:12;;;;;;;;;;;;;;;12.58;100.00;99235.38;10546668;28;19924;-75
2022/09/18 08:35:17;;;;;;;;;;;;;;;12.51;100.00;99233.06;10193242;28;10000008;-75
2022/09/18 08:40:23;;;;;;;;;;;;;;;12.68;100.00;99230.69;10537845;28;20277;-79
2022/09/18 08:45:37;;;;;;;;;;;;;;;12.53;100.00;99232.09;10537233;28;20609;-74
2022/09/18 08:50:43;;;;;;;;;;;;;;;12.33;100.00;99228.50;10540307;28;20238;-74
2022/09/18 08:55:48;;;;;;;;;;;;;;;12.51;100.00;99230.47;10537228;28;19924;-75
2022/09/18 09:00:53;;;;;;;;;;;;;;;12.65;100.00;99228.19;10540176;28;20434;-77
2022/09/18 09:06:01;;;;;;;;;;;;;;;12.60;100.00;99236.16;10540322;28;19928;-76
2022/09/18 09:11:10;;;;;;;;;;;;;;;12.84;100.00;99234.41;10540158;28;19982;-76
2022/09/18 09:16:16;;;;;;;;;;;;;;;13.12;100.00;99229.91;10523258;28;20258;-75
2022/09/18 09:21:23;;;;;;;;;;;;;;;13.11;100.00;99237.78;10533621;28;19936;-75
2022/09/18 09:26:26;;;;;;;;;;;;;;;13.29;100.00;99237.06;10539578;28;19932;-78
2022/09/18 09:31:33;;;;;;;;;;;;;;;13.42;100.00;99236.53;10534356;28;19935;-74
2022/09/18 09:36:49;;;;;;;;;;;;;;;13.70;100.00;99241.50;10538880;28;19938;-76
2022/09/18 09:41:54;;;;;;;;;;;;;;;13.81;100.00;99247.09;10536409;28;20027;-76
2022/09/18 09:47:01;;;;;;;;;;;;;;;14.14;100.00;99240.50;10534916;28;19952;-77
2022/09/18 09:52:14;;;;;;;;;;;;;;;14.25;98.71;99240.03;10537660;28;20261;-76
2022/09/18 09:57:24;;;;;;;;;;;;;;;14.26;98.13;99241.75;10535987;28;19928;-75
2022/09/18 10:02:32;;;;;;;;;;;;;;;14.06;96.69;99252.16;10534983;28;20275;-77
2022/09/18 10:07:39;;;;;;;;;;;;;;;14.24;97.44;99252.22;10537368;28;19928;-75
2022/09/18 10:12:47;;;;;;;;;;;;;;;14.36;95.49;99256.09;10536024;28;19994;-77
2022/09/18 10:17:57;;;;;;;;;;;;;;;14.38;93.96;99264.72;10536909;28;19928;-76
2022/09/18 10:23:06;;;;;;;;;;;;;;;14.64;93.59;99264.44;10536980;28;20245;-68
2022/09/18 10:28:11;;;;;;;;;;;;;;;14.72;93.25;99259.75;10533490;28;19939;-68
2022/09/18 10:33:29;;;;;;;;;;;;;;;14.84;92.03;99272.25;10535781;28;19924;-67
2022/09/18 10:38:36;;;;;;;;;;;;;;;15.16;90.18;99258.56;10535484;28;20003;-70
2022/09/18 10:43:49;;;;;;;;;;;;;;;15.27;88.14;99258.09;10525450;28;19928;-69
2022/09/18 10:48:53;;;;;;;;;;;;;;;15.35;88.00;99255.94;10521430;28;19928;-69
2022/09/18 10:54:02;;;;;;;;;;;;;;;15.22;86.77;99275.75;10512866;28;20660;-72
2022/09/18 10:59:31;;;;;;;;;;;;;;;15.18;85.84;99264.59;10538501;28;20011;-72
2022/09/18 11:04:34;;;;;;;;;;;;;;;15.25;85.01;99272.97;10533536;28;19934;-73
2022/09/18 11:09:40;;;;;;;;;;;;;;;15.19;84.47;99274.09;10535549;28;19928;-73
2022/09/18 11:14:45;;;;;;;;;;;;;;;15.32;83.87;99274.41;10532690;28;20252;-72
2022/09/18 11:19:50;;;;;;;;;;;;;;;15.72;81.95;99263.78;10532363;28;19928;-73
2022/09/18 11:25:06;;;;;;;;;;;;;;;15.88;80.42;99273.41;10535113;28;19938;-74
2022/09/18 11:30:13;;;;;;;;;;;;;;;16.19;80.20;99257.03;10538163;28;19938;-69
2022/09/18 11:35:19;;;;;;;;;;;;;;;16.25;78.96;99266.34;10542764;28;19931;-67
2022/09/18 11:40:28;;;;;;;;;;;;;;;16.29;78.45;99271.34;10538253;28;19932;-65
2022/09/18 11:45:40;;;;;;;;;;;;;;;16.62;76.42;99266.22;10543082;28;20377;-75
2022/09/18 11:50:43;;;;;;;;;;;;;;;17.02;74.78;99257.91;10543047;28;19932;-75
2022/09/18 11:55:50;;;;;;;;;;;;;;;17.12;72.19;99266.97;10543122;28;20031;-75
2022/09/18 12:01:09;;;;;;;;;;;;;;;17.51;71.35;99270.09;10542552;28;19928;-73
2022/09/18 12:06:16;;;;;;;;;;;;;;;17.13;72.13;99256.44;10542230;28;20022;-74
2022/09/18 12:11:24;;;;;;;;;;;;;;;17.11;72.15;99271.41;10542169;28;19928;-74
2022/09/18 12:16:32;;;;;;;;;;;;;;;16.62;71.86;99271.47;10545027;28;19955;-76
2022/09/18 12:21:42;;;;;;;;;;;;;;;16.23;73.17;99265.59;10195563;28;10000449;-77
2022/09/18 12:27:09;;;;;;;;;;;;;;;15.86;73.73;99277.88;10536008;28;20483;-80
2022/09/18 12:32:21;;;;;;;;;;;;;;;15.60;75.11;99267.81;10514931;28;19924;-82
2022/09/18 12:37:32;;;;;;;;;;;;;;;15.50;75.34;99266.56;10536581;28;20053;-79
2022/09/18 12:42:42;;;;;;;;;;;;;;;15.61;74.92;99261.69;10522474;28;20058;-78
2022/09/18 12:47:54;;;;;;;;;;;;;;;15.61;74.54;99268.66;10540796;28;20023;-78
2022/09/18 12:53:03;;;;;;;;;;;;;;;15.66;73.09;99264.06;10540555;28;19924;-78
2022/09/18 12:58:24;;;;;;;;;;;;;;;15.92;72.74;99267.13;10529976;28;20015;-79
2022/09/18 13:03:31;;;;;;;;;;;;;;;15.87;73.08;99261.28;10498886;28;19950;-80
2022/09/18 13:08:37;;;;;;;;;;;;;;;15.61;74.60;99259.06;10498934;28;19946;-79
2022/09/18 13:13:45;;;;;;;;;;;;;;;15.53;75.14;99269.03;10501268;28;20361;-79
2022/09/18 13:18:53;;;;;;;;;;;;;;;15.40;75.66;99277.53;10524688;28;20247;-80
2022/09/18 13:23:57;;;;;;;;;;;;;;;15.32;74.36;99293.56;10540289;28;20279;-79
2022/09/18 13:29:02;;;;;;;;;;;;;;;15.16;75.34;99289.94;10539850;28;20023;-77
2022/09/18 13:34:06;;;;;;;;;;;;;;;15.08;75.44;99289.44;10533199;28;20345;-79
2022/09/18 13:39:15;;;;;;;;;;;;;;;15.10;76.57;99287.59;10497790;28;20027;-74
2022/09/18 13:44:21;;;;;;;;;;;;;;;15.13;76.53;99292.69;10496997;28;19929;-72
2022/09/18 13:49:28;;;;;;;;;;;;;;;15.01;78.01;99301.91;10496658;28;19990;-73
2022/09/18 13:54:31;;;;;;;;;;;;;;;15.49;76.70;99303.25;10514802;28;19924;-76
2022/09/18 13:59:45;;;;;;;;;;;;;;;15.51;75.20;99304.91;10537806;28;20463;-76
2022/09/18 14:05:06;;;;;;;;;;;;;;;15.78;74.41;99294.88;10537645;28;19928;-75
2022/09/18 14:10:21;;;;;;;;;;;;;;;15.59;74.21;99307.13;10537903;28;19928;-73
2022/09/18 14:15:26;;;;;;;;;;;;;;;15.30;75.40;99315.44;10537651;28;19924;-76
2022/09/18 14:20:29;;;;;;;;;;;;;;;14.97;75.96;99329.13;10537210;28;19924;-74
2022/09/18 14:25:44;;;;;;;;;;;;;;;14.74;77.73;99317.97;10572801;28;20386;-72
2022/09/18 14:31:09;;;;;;;;;;;;;;;14.57;78.48;99323.06;10543987;28;20031;-74
2022/09/18 14:36:12;;;;;;;;;;;;;;;14.51;79.14;99323.34;10506120;28;20348;-73
2022/09/18 14:41:20;;;;;;;;;;;;;;;14.42;80.20;99323.72;10538004;28;20010;-75
2022/09/18 14:46:25;;;;;;;;;;;;;;;14.38;81.35;99315.19;10538602;28;19938;-73
2022/09/18 14:51:29;;;;;;;;;;;;;;;14.24;81.97;99327.91;10525180;28;19944;-73
2022/09/18 14:56:52;;;;;;;;;;;;;;;14.07;84.07;99332.97;10495196;28;19924;-72
2022/09/18 15:02:10;;;;;;;;;;;;;;;14.06;84.93;99333.06;10499937;28;19939;-75
2022/09/18 15:07:19;;;;;;;;;;;;;;;14.24;84.27;99329.66;10502789;28;19960;-73
2022/09/18 15:12:24;;;;;;;;;;;;;;;14.27;84.35;99325.22;10502970;28;19928;-74
2022/09/18 15:17:29;;;;;;;;;;;;;;;14.00;86.51;99320.25;10502468;28;19929;-76
2022/09/18 15:22:34;;;;;;;;;;;;;;;13.91;87.98;99314.50;10525780;28;19934;-71
2022/09/18 15:27:37;;;;;;;;;;;;;;;14.00;89.01;99310.66;10586627;28;19930;-73
2022/09/18 15:32:43;;;;;;;;;;;;;;;14.09;88.70;99317.25;10585970;28;20352;-75
2022/09/18 15:37:50;;;;;;;;;;;;;;;13.96;89.43;99314.28;10548940;28;19938;-74
2022/09/18 15:42:57;;;;;;;;;;;;;;;14.01;89.67;99311.53;10541402;28;19924;-74
2022/09/18 15:48:01;;;;;;;;;;;;;;;14.10;89.48;99301.53;10533898;28;19924;-75
2022/09/18 15:53:17;;;;;;;;;;;;;;;14.23;89.55;99307.97;10542589;28;20019;-73
2022/09/18 15:58:35;;;;;;;;;;;;;;;14.11;90.19;99320.66;10537114;28;20380;-74
2022/09/18 16:03:40;;;;;;;;;;;;;;;14.13;90.21;99314.47;10533088;28;19935;-74
2022/09/18 16:08:50;;;;;;;;;;;;;;;14.05;90.70;99315.72;10542509;28;19924;-74
2022/09/18 16:13:55;;;;;;;;;;;;;;;13.94;91.51;99311.75;10536562;28;19929;-76
2022/09/18 16:19:05;;;;;;;;;;;;;;;14.00;91.36;99313.28;10519517;28;19930;-73
2022/09/18 16:24:18;;;;;;;;;;;;;;;13.94;92.18;99314.34;10544116;28;20436;-74
2022/09/18 16:29:21;;;;;;;;;;;;;;;13.97;92.55;99310.78;10546730;28;19924;-74
2022/09/18 16:34:26;;;;;;;;;;;;;;;14.06;92.46;99309.56;10547768;28;20011;-74
2022/09/18 16:39:30;;;;;;;;;;;;;;;14.07;93.10;99314.72;10547707;28;19967;-76
2022/09/18 16:44:34;;;;;;;;;;;;;;;14.07;93.41;99317.34;10547362;28;20357;-73
2022/09/18 16:49:41;;;;;;;;;;;;;;;14.09;93.24;99312.91;10546991;28;20023;-75
2022/09/18 16:54:45;;;;;;;;;;;;;;;14.11;93.63;99315.44;10546687;28;20016;-76
2022/09/18 16:59:49;;;;;;;;;;;;;;;14.05;93.47;99308.72;10214223;28;9999855;-71
2022/09/18 17:04:52;;;;;;;;;;;;;;;14.07;94.11;99327.78;10583694;28;19966;-68
2022/09/18 17:09:57;;;;;;;;;;;;;;;13.99;94.38;99316.81;10584173;28;20267;-70
2022/09/18 17:15:00;;;;;;;;;;;;;;;14.02;94.85;99316.66;10537248;28;19932;-69
2022/09/18 17:20:04;;;;;;;;;;;;;;;14.08;94.33;99310.34;10540105;28;19925;-67
2022/09/18 17:25:10;;;;;;;;;;;;;;;14.06;94.47;99326.09;10539374;28;20014;-68
2022/09/18 17:30:13;;;;;;;;;;;;;;;14.13;94.40;99316.25;10539371;28;20341;-77
2022/09/18 17:35:17;;;;;;;;;;;;;;;14.09;94.77;99317.25;10539019;28;20018;-72
2022/09/18 17:40:22;;;;;;;;;;;;;;;14.16;95.51;99316.97;10538606;28;20385;-75
2022/09/18 17:45:26;;;;;;;;;;;;;;;14.20;94.65;99323.75;10539129;28;19981;-76
2022/09/18 17:50:29;;;;;;;;;;;;;;;14.21;94.92;99321.97;10539204;28;19938;-79
2022/09/18 17:55:34;;;;;;;;;;;;;;;14.11;94.33;99328.50;10539399;28;19935;-78
2022/09/18 18:00:37;;;;;;;;;;;;;;;14.07;95.49;99326.91;10567806;28;20006;-80
2022/09/18 18:05:40;;;;;;;;;;;;;;;14.12;94.86;99330.19;10581259;28;19938;-79
2022/09/18 18:10:45;;;;;;;;;;;;;;;14.07;95.00;99334.72;10580405;28;20627;-80
2022/09/18 18:15:49;;;;;;;;;;;;;;;14.04;95.24;99342.69;10580095;28;19924;-76
2022/09/18 18:20:52;;;;;;;;;;;;;;;14.12;94.94;99348.44;10580493;28;20303;-78
2022/09/18 18:25:59;;;;;;;;;;;;;;;14.04;94.78;99351.38;10581032;28;19927;-79
2022/09/18 18:31:05;;;;;;;;;;;;;;;13.97;94.92;99357.75;10581579;28;20278;-78
2022/09/18 18:36:10;;;;;;;;;;;;;;;13.76;94.74;99364.66;10581692;28;20034;-78
2022/09/18 18:41:15;;;;;;;;;;;;;;;13.71;95.90;99378.78;10580448;28;19930;-67
2022/09/18 18:46:18;;;;;;;;;;;;;;;13.70;96.39;99371.88;10579448;28;19951;-72
2022/09/18 18:51:21;;;;;;;;;;;;;;;13.61;97.52;99378.31;10579310;28;19924;-69
2022/09/18 18:56:26;;;;;;;;;;;;;;;13.51;98.46;99379.53;10543730;28;20007;-71
2022/09/18 19:01:30;;;;;;;;;;;;;;;13.42;99.34;99381.66;10572562;28;20022;-69
2022/09/18 19:06:35;;;;;;;;;;;;;;;13.30;100.00;99382.09;10582240;28;19923;-74
2022/09/18 19:11:46;;;;;;;;;;;;;;;13.43;100.00;99386.78;10560132;28;19932;-77
2022/09/18 19:16:50;;;;;;;;;;;;;;;13.40;100.00;99381.72;10542024;28;19955;-76
2022/09/18 19:21:53;;;;;;;;;;;;;;;13.53;100.00;99387.31;10542251;28;20071;-76
2022/09/18 19:26:57;;;;;;;;;;;;;;;13.59;100.00;99385.31;10511858;28;20019;-77
2022/09/18 19:32:01;;;;;;;;;;;;;;;13.73;100.00;99390.00;10500303;28;19960;-75
2022/09/18 19:37:04;;;;;;;;;;;;;;;13.70;100.00;99393.56;10515365;28;20278;-78
2022/09/18 19:42:16;;;;;;;;;;;;;;;13.63;100.00;99392.09;10538077;28;20014;-76
2022/09/18 19:47:20;;;;;;;;;;;;;;;13.43;100.00;99391.16;10187197;28;10000260;-76
2022/09/18 19:52:26;;;;;;;;;;;;;;;13.27;100.00;99396.06;10543053;28;19928;-77
2022/09/18 19:57:33;;;;;;;;;;;;;;;13.32;100.00;99391.53;10543049;28;20053;-75
2022/09/18 20:02:36;;;;;;;;;;;;;;;13.22;100.00;99391.97;10548855;28;20253;-75
2022/09/18 20:07:39;;;;;;;;;;;;;;;13.07;100.00;99387.28;10548401;28;19924;-77
2022/09/18 20:12:44;;;;;;;;;;;;;;;12.98;100.00;99383.22;10548525;28;20055;-78
2022/09/18 20:17:47;;;;;;;;;;;;;;;12.98;100.00;99388.41;10548489;28;20019;-77
2022/09/18 20:22:52;;;;;;;;;;;;;;;12.98;100.00;99387.59;10548083;28;20348;-80
2022/09/18 20:27:56;;;;;;;;;;;;;;;12.90;100.00;99387.00;10548049;28;20264;-78
2022/09/18 20:33:00;;;;;;;;;;;;;;;12.85;100.00;99386.31;10547743;28;19925;-76
2022/09/18 20:38:04;;;;;;;;;;;;;;;12.87;100.00;99372.34;10547547;28;19924;-76
2022/09/18 20:43:08;;;;;;;;;;;;;;;12.93;100.00;99373.84;10547217;28;19974;-77
2022/09/18 20:48:11;;;;;;;;;;;;;;;12.91;100.00;99373.09;10180592;28;10000157;-77
2022/09/18 20:53:14;;;;;;;;;;;;;;;12.90;100.00;99373.97;10543164;28;19924;-77
2022/09/18 20:58:19;;;;;;;;;;;;;;;12.82;100.00;99367.28;10516287;28;19935;-78
2022/09/18 21:03:23;;;;;;;;;;;;;;;12.91;100.00;99363.50;10499576;28;19935;-76
2022/09/18 21:08:28;;;;;;;;;;;;;;;12.89;100.00;99359.25;10184179;28;9999824;-77
2022/09/18 21:13:32;;;;;;;;;;;;;;;12.84;100.00;99355.97;10527892;28;19932;-76
2022/09/18 21:18:39;;;;;;;;;;;;;;;12.89;100.00;99360.09;10498429;28;20656;-77
2022/09/18 21:23:56;;;;;;;;;;;;;;;12.82;100.00;99355.16;10497848;28;20411;-78
2022/09/18 21:29:00;;;;;;;;;;;;;;;12.95;100.00;99352.06;10498019;28;19935;-75
2022/09/18 21:34:04;;;;;;;;;;;;;;;12.86;100.00;99356.78;10497645;28;19982;-65
2022/09/18 21:39:07;;;;;;;;;;;;;;;12.79;100.00;99358.72;10496946;28;20323;-68
2022/09/18 21:44:14;;;;;;;;;;;;;;;12.83;100.00;99349.91;10496645;28;19925;-66
2022/09/18 21:49:18;;;;;;;;;;;;;;;12.84;100.00;99349.00;10496442;28;19981;-67
2022/09/18 21:54:22;;;;;;;;;;;;;;;12.87;100.00;99350.66;10537051;28;20018;-77
2022/09/18 21:59:27;;;;;;;;;;;;;;;12.92;100.00;99346.97;10539617;28;19934;-68
2022/09/18 22:04:31;;;;;;;;;;;;;;;12.96;100.00;99345.13;10542323;28;19932;-68
2022/09/18 22:09:37;;;;;;;;;;;;;;;13.00;100.00;99349.28;10580309;28;19928;-76
2022/09/18 22:14:41;;;;;;;;;;;;;;;13.04;100.00;99350.94;10580336;28;20767;-75
2022/09/18 22:19:44;;;;;;;;;;;;;;;13.00;100.00;99342.34;10579614;28;19934;-75
2022/09/18 22:24:47;;;;;;;;;;;;;;;13.02;100.00;99342.31;10579335;28;19927;-76
2022/09/18 22:29:51;;;;;;;;;;;;;;;13.10;100.00;99350.72;10579420;28;19924;-76
2022/09/18 22:34:54;;;;;;;;;;;;;;;12.93;100.00;99353.03;10579647;28;20374;-75
2022/09/18 22:39:57;;;;;;;;;;;;;;;12.93;100.00;99359.09;10579383;28;19934;-76
2022/09/18 22:45:02;;;;;;;;;;;;;;;12.91;100.00;99360.06;10574085;28;19928;-75
2022/09/18 22:50:06;;;;;;;;;;;;;;;12.86;100.00;99356.78;10532110;28;19938;-75
2022/09/18 22:55:09;;;;;;;;;;;;;;;12.80;100.00;99371.69;10514484;28;19939;-74
2022/09/18 23:00:14;;;;;;;;;;;;;;;12.78;100.00;99370.06;10494875;28;19981;-76
2022/09/18 23:05:18;;;;;;;;;;;;;;;12.89;100.00;99367.91;10512763;28;19923;-75
2022/09/18 23:10:21;;;;;;;;;;;;;;;12.85;100.00;99366.34;10540116;28;19934;-73
2022/09/18 23:15:25;;;;;;;;;;;;;;;12.70;100.00;99366.88;10536045;28;19928;-76
2022/09/18 23:20:29;;;;;;;;;;;;;;;12.48;100.00;99379.75;10537406;28;19967;-74
2022/09/18 23:25:34;;;;;;;;;;;;;;;12.48;100.00;99365.88;10545443;28;19924;-77
2022/09/18 23:30:39;;;;;;;;;;;;;;;12.46;100.00;99375.47;10546352;28;19930;-78
2022/09/18 23:35:42;;;;;;;;;;;;;;;12.62;100.00;99374.06;10545516;28;19931;-75
2022/09/18 23:40:45;;;;;;;;;;;;;;;12.73;100.00;99362.38;10544233;28;19928;-76
2022/09/18 23:45:49;;;;;;;;;;;;;;;12.63;100.00;99361.00;10543658;28;19938;-70
2022/09/18 23:50:52;;;;;;;;;;;;;;;12.67;100.00;99351.34;10543265;28;20279;-69
2022/09/18 23:56:00;;;;;;;;;;;;;;;12.59;100.00;99355.97;10543125;28;20019;-69
